This is the latest recevied weather packets stored in our database for station/object EB1BWO-11. If no packets are shown the sender has not sent any weather packets the latest 10 day(s).
| Time | Temp. | Humidity | Pressure | Rain* | Wind** | Luminosity | Snow |
|---|---|---|---|---|---|---|---|
| 1778085726 | 17.78° C | 67% | 1016.7 hPa | - | - | - | - |
| 1778084826 | 17.78° C | 66% | 1016.8 hPa | - | - | - | - |
| 1778083925 | 18.33° C | 66% | 1016.9 hPa | - | - | - | - |
| 1778083025 | 18.89° C | 64% | 1016.9 hPa | - | - | - | - |
| 1778082125 | 19.44° C | 64% | 1017 hPa | - | - | - | - |
| 1778081225 | 18.89° C | 63% | 1017.1 hPa | - | - | - | - |
| 1778080325 | 18.89° C | 65% | 1017.1 hPa | - | - | - | - |
| 1778079425 | 18.89° C | 65% | 1017.1 hPa | - | - | - | - |
| 1778078525 | 19.44° C | 63% | 1017.3 hPa | - | - | - | - |
| 1778077625 | 21.11° C | 62% | 1017.2 hPa | - | - | - | - |
| 1778076724 | 22.78° C | 58% | 1017.3 hPa | - | - | - | - |
| 1778075824 | 23.89° C | 56% | 1017.2 hPa | - | - | - | - |
| 1778074924 | 23.89° C | 58% | 1017.4 hPa | - | - | - | - |
| 1778074024 | 28.33° C | 53% | 1017.4 hPa | - | - | - | - |
| 1778073124 | 36.11° C | 35% | 1017.3 hPa | - | - | - | - |
| 1778072224 | 41.67° C | 31% | 1017.3 hPa | - | - | - | - |
| 1778071324 | 35.56° C | 37% | 1017.5 hPa | - | - | - | - |
| 1778070421 | 33.89° C | 39% | 1017.3 hPa | - | - | - | - |
| 1778069521 | 37.22° C | 34% | 1017.3 hPa | - | - | - | - |
| 1778068620 | 28.89° C | 43% | 1017.5 hPa | - | - | - | - |
| 1778067720 | 28.89° C | 46% | 1017.6 hPa | - | - | - | - |
| 1778066820 | 27.22° C | 51% | 1017.6 hPa | - | - | - | - |
| 1778065919 | 22.78° C | 58% | 1017.8 hPa | - | - | - | - |
| 1778065019 | 23.89° C | 54% | 1017.8 hPa | - | - | - | - |
| 1778064119 | 23.89° C | 59% | 1017.7 hPa | - | - | - | - |
* Rain since midnight (hover to see other rain measurements)
** Current wind speed in m/s (hover to see current wind gust speed)